createdAt,value
2016-11-25T00:00:36.378Z,1002.19
2016-11-25T00:01:17.156Z,1002.24
2016-11-25T00:01:57.933Z,1002.2
2016-11-25T00:02:38.688Z,1002.12
2016-11-25T00:03:19.442Z,1002.16
2016-11-25T00:04:00.243Z,1002.15
2016-11-25T00:04:41.008Z,1002.16
2016-11-25T00:05:21.777Z,1002.19
2016-11-25T00:06:02.562Z,1002.16
2016-11-25T00:06:43.308Z,1002.15
2016-11-25T00:07:24.076Z,1002.15
2016-11-25T00:08:04.823Z,1002.14
2016-11-25T00:08:45.622Z,1002.13
2016-11-25T00:09:26.358Z,1002.16
2016-11-25T00:10:07.124Z,1002.18
2016-11-25T00:10:47.888Z,1002.12
2016-11-25T00:11:28.654Z,1002.16
2016-11-25T00:12:09.420Z,1002.15
2016-11-25T00:12:50.193Z,1002.18
2016-11-25T00:13:30.954Z,1002.18
2016-11-25T00:14:11.721Z,1002.18
2016-11-25T00:14:52.489Z,1002.14
2016-11-25T00:15:33.252Z,1002.15
2016-11-25T00:16:14.011Z,1002.16
2016-11-25T00:16:54.813Z,1002.15
2016-11-25T00:17:35.593Z,1002.12
2016-11-25T00:18:16.373Z,1002.11
2016-11-25T00:18:57.158Z,1002.13
2016-11-25T00:19:37.925Z,1002.12
2016-11-25T00:20:18.688Z,1002.07
2016-11-25T00:20:59.453Z,1002.08
2016-11-25T00:21:40.244Z,1002.07
2016-11-25T00:22:21.036Z,1002.1
2016-11-25T00:23:01.796Z,1002.08
2016-11-25T00:23:42.572Z,1002.09
2016-11-25T00:24:23.332Z,1002.07
2016-11-25T00:25:04.083Z,1002.09
2016-11-25T00:25:44.889Z,1002.13
2016-11-25T00:26:25.654Z,1002.07
2016-11-25T00:27:06.414Z,1002.1
2016-11-25T00:27:47.209Z,1002.1
2016-11-25T00:28:27.998Z,1002.07
2016-11-25T00:29:08.758Z,1002.07
2016-11-25T00:29:49.549Z,1002.04
2016-11-25T00:30:30.301Z,1002.06
2016-11-25T00:31:11.043Z,1002.03
2016-11-25T00:31:51.823Z,1002.04
2016-11-25T00:32:32.580Z,1002.05
2016-11-25T00:33:13.313Z,1002.03
2016-11-25T00:33:54.117Z,1002.04
2016-11-25T00:34:34.888Z,1002.03
2016-11-25T00:35:15.611Z,1001.99
2016-11-25T00:35:56.372Z,1002.03
2016-11-25T00:36:37.156Z,1002.04
2016-11-25T00:37:17.916Z,1002.05
2016-11-25T00:37:58.690Z,1002.03
2016-11-25T00:38:39.468Z,1002.01
2016-11-25T00:39:20.240Z,1002.04
2016-11-25T00:40:01.002Z,1002.03
2016-11-25T00:40:41.760Z,1002.04
2016-11-25T00:41:22.517Z,1002.04
2016-11-25T00:42:03.233Z,1002.03
2016-11-25T00:42:44.007Z,1002.05
2016-11-25T00:43:24.744Z,1002.05
2016-11-25T00:44:05.496Z,1002.1
2016-11-25T00:44:46.298Z,1002.12
2016-11-25T00:45:27.048Z,1002.13
2016-11-25T00:46:07.793Z,1002.14
2016-11-25T00:46:48.568Z,1002.15
2016-11-25T00:47:29.353Z,1002.14
2016-11-25T00:48:10.107Z,1002.17
2016-11-25T00:48:50.883Z,1002.18
2016-11-25T00:49:31.661Z,1002.17
2016-11-25T00:50:12.421Z,1002.16
2016-11-25T00:50:53.182Z,1002.14
2016-11-25T00:51:33.950Z,1002.12
2016-11-25T00:52:14.726Z,1002.15
2016-11-25T00:52:55.556Z,1002.15
2016-11-25T00:53:36.320Z,1002.14
2016-11-25T00:54:17.144Z,1002.14
2016-11-25T00:54:57.849Z,1002.16
2016-11-25T00:55:38.638Z,1002.13
2016-11-25T00:56:19.437Z,1002.11
2016-11-25T00:57:00.175Z,1002.13
2016-11-25T00:57:40.938Z,1002.13
2016-11-25T00:58:21.729Z,1002.15
2016-11-25T00:59:02.477Z,1002.12
2016-11-25T00:59:43.242Z,1002.11
2016-11-25T01:00:23.997Z,1002.13
2016-11-25T01:01:04.742Z,1002.13
2016-11-25T01:01:45.529Z,1002.12
2016-11-25T01:02:26.252Z,1002.08
2016-11-25T01:03:07.007Z,1002.03
2016-11-25T01:03:47.798Z,1002.05
2016-11-25T01:04:28.594Z,1001.99
2016-11-25T01:05:09.346Z,1002
2016-11-25T01:05:50.147Z,1001.96
2016-11-25T01:06:30.906Z,1001.95
2016-11-25T01:07:11.660Z,1001.98
2016-11-25T01:07:52.447Z,1001.96
2016-11-25T01:08:33.206Z,1001.95
2016-11-25T01:09:13.952Z,1001.95
2016-11-25T01:09:54.728Z,1001.98
2016-11-25T01:10:35.501Z,1001.96
2016-11-25T01:11:16.230Z,1001.97
2016-11-25T01:11:57.003Z,1001.97
2016-11-25T01:12:37.801Z,1002
2016-11-25T01:13:18.581Z,1001.98
2016-11-25T01:13:59.339Z,1001.97
2016-11-25T01:14:40.121Z,1001.94
2016-11-25T01:15:20.902Z,1001.95
2016-11-25T01:16:01.686Z,1001.96
2016-11-25T01:16:42.472Z,1001.94
2016-11-25T01:17:23.226Z,1001.95
2016-11-25T01:18:04.007Z,1001.95
2016-11-25T01:18:44.760Z,1001.95
2016-11-25T01:19:25.553Z,1001.95
2016-11-25T01:20:06.308Z,1001.95
2016-11-25T01:20:47.080Z,1001.98
2016-11-25T01:21:27.856Z,1001.96
2016-11-25T01:22:08.598Z,1001.96
2016-11-25T01:22:49.406Z,1001.97
2016-11-25T01:23:30.169Z,1001.95
2016-11-25T01:24:10.913Z,1001.98
2016-11-25T01:24:51.670Z,1001.97
2016-11-25T01:25:32.448Z,1001.98
2016-11-25T01:26:13.252Z,1001.94
2016-11-25T01:26:54.027Z,1001.95
2016-11-25T01:27:34.835Z,1001.95
2016-11-25T01:28:15.569Z,1001.92
2016-11-25T01:28:56.340Z,1001.93
2016-11-25T01:29:37.101Z,1001.88
2016-11-25T01:30:17.890Z,1001.92
2016-11-25T01:30:58.635Z,1001.93
2016-11-25T01:31:39.405Z,1001.91
2016-11-25T01:32:20.167Z,1001.9
2016-11-25T01:33:00.896Z,1001.87
2016-11-25T01:33:41.647Z,1001.89
2016-11-25T01:34:22.422Z,1001.88
2016-11-25T01:35:03.178Z,1001.91
2016-11-25T01:35:43.949Z,1001.87
2016-11-25T01:36:24.727Z,1001.88
2016-11-25T01:37:05.477Z,1001.91
2016-11-25T01:37:46.225Z,1001.89
2016-11-25T01:38:27.008Z,1001.9
2016-11-25T01:39:07.770Z,1001.91
2016-11-25T01:39:48.543Z,1001.92
2016-11-25T01:40:29.325Z,1001.89
2016-11-25T01:41:10.080Z,1001.93
2016-11-25T01:41:50.827Z,1001.95
2016-11-25T01:42:31.591Z,1001.96
2016-11-25T01:43:12.372Z,1001.94
2016-11-25T01:43:53.106Z,1001.95
2016-11-25T01:44:33.885Z,1001.96
2016-11-25T01:45:14.637Z,1001.96
2016-11-25T01:45:55.388Z,1002
2016-11-25T01:46:36.141Z,1001.96
2016-11-25T01:47:16.913Z,1002.01
2016-11-25T01:47:57.667Z,1001.98
2016-11-25T01:48:38.407Z,1001.98
2016-11-25T01:49:19.683Z,1001.97
2016-11-25T01:49:59.962Z,1001.94
2016-11-25T01:50:40.724Z,1001.92
2016-11-25T01:51:21.491Z,1001.98
2016-11-25T01:52:02.238Z,1001.96
2016-11-25T01:52:42.990Z,1001.95
2016-11-25T01:53:23.750Z,1001.96
2016-11-25T01:54:04.521Z,1001.93
2016-11-25T01:54:45.286Z,1001.97
2016-11-25T01:55:26.064Z,1001.92
2016-11-25T01:56:06.819Z,1001.92
2016-11-25T01:56:47.555Z,1001.91
2016-11-25T01:57:28.310Z,1001.95
2016-11-25T01:58:09.116Z,1001.93
2016-11-25T01:58:49.872Z,1001.92
2016-11-25T01:59:30.679Z,1001.92
2016-11-25T02:00:11.469Z,1001.94
2016-11-25T02:00:52.222Z,1001.91
2016-11-25T02:01:32.987Z,1001.89
2016-11-25T02:02:13.759Z,1001.9
2016-11-25T02:02:54.521Z,1001.86
2016-11-25T02:03:35.249Z,1001.87
2016-11-25T02:04:16.029Z,1001.83
2016-11-25T02:04:56.804Z,1001.81
2016-11-25T02:05:37.531Z,1001.79
2016-11-25T02:06:18.315Z,1001.78
2016-11-25T02:06:59.082Z,1001.72
2016-11-25T02:07:39.843Z,1001.75
2016-11-25T02:08:20.655Z,1001.74
2016-11-25T02:09:01.428Z,1001.73
2016-11-25T02:09:42.178Z,1001.71
2016-11-25T02:10:22.961Z,1001.71
2016-11-25T02:11:03.745Z,1001.74
2016-11-25T08:35:36.771Z,1003.74
2016-11-25T08:36:17.582Z,1003.76
2016-11-25T08:36:58.348Z,1003.74
2016-11-25T08:37:39.109Z,1003.74
2016-11-25T08:38:19.877Z,1003.79
2016-11-25T08:39:00.657Z,1003.79
2016-11-25T08:39:41.412Z,1003.76
2016-11-25T08:40:22.185Z,1003.78
2016-11-25T08:41:02.965Z,1003.81
2016-11-25T08:41:43.723Z,1003.81
2016-11-25T08:42:24.526Z,1003.77
2016-11-25T08:43:05.305Z,1003.82
2016-11-25T08:43:46.068Z,1003.85
2016-11-25T08:44:26.844Z,1003.85
2016-11-25T08:45:07.637Z,1003.85
2016-11-25T08:45:48.407Z,1003.83
2016-11-25T08:46:29.725Z,1003.86
2016-11-25T08:47:10.005Z,1003.88
2016-11-25T08:47:51.726Z,1003.85
2016-11-25T08:48:31.559Z,1003.88
2016-11-25T08:49:12.351Z,1003.91
2016-11-25T08:49:53.130Z,1003.92
2016-11-25T08:50:33.887Z,1003.9
2016-11-25T08:51:14.701Z,1003.92
2016-11-25T08:51:56.233Z,1003.87
2016-11-25T08:52:36.204Z,1003.9
2016-11-25T08:53:17.008Z,1003.91
2016-11-25T08:53:57.814Z,1003.92
2016-11-25T08:54:38.561Z,1003.87
2016-11-25T08:55:19.323Z,1003.89
2016-11-25T08:56:00.113Z,1003.92
2016-11-25T08:56:40.931Z,1003.89
2016-11-25T08:57:22.229Z,1003.9
2016-11-25T08:58:02.462Z,1003.89
2016-11-25T08:58:43.241Z,1003.9
2016-11-25T08:59:24.031Z,1003.92
2016-11-25T09:00:04.824Z,1003.92
2016-11-25T09:00:46.461Z,1003.9
2016-11-25T09:01:27.928Z,1003.94
2016-11-25T09:02:08.703Z,1003.92
2016-11-25T09:02:49.489Z,1003.91
2016-11-25T09:03:30.233Z,1003.89
2016-11-25T09:04:11.043Z,1003.93
2016-11-25T09:04:51.926Z,1003.93
2016-11-25T09:05:33.992Z,1003.92
2016-11-25T09:06:14.776Z,1003.92
2016-11-25T09:06:55.569Z,1003.96
2016-11-25T09:07:36.349Z,1003.95
2016-11-25T09:08:17.102Z,1003.99
2016-11-25T09:08:57.902Z,1003.99
2016-11-25T09:09:39.300Z,1003.96
2016-11-25T09:10:20.088Z,1004.04
2016-11-25T09:11:00.878Z,1004.01
2016-11-25T09:11:41.671Z,1004.03
2016-11-25T09:12:22.445Z,1004.06
2016-11-25T09:13:03.239Z,1004.05
2016-11-25T09:13:44.033Z,1004.07
2016-11-25T09:14:24.785Z,1004.08
2016-11-25T09:15:05.560Z,1004.07
2016-11-25T09:15:46.335Z,1004.08
2016-11-25T09:16:27.114Z,1004.11
2016-11-25T09:17:07.885Z,1004.09
2016-11-25T09:17:49.741Z,1004.09
2016-11-25T09:18:29.985Z,1004.14
2016-11-25T09:19:10.735Z,1004.14
2016-11-25T09:19:52.250Z,1004.15
2016-11-25T09:20:32.292Z,1004.16
2016-11-25T09:21:14.029Z,1004.14
2016-11-25T09:21:54.817Z,1004.2
2016-11-25T09:22:35.604Z,1004.2
2016-11-25T09:23:16.366Z,1004.23
2016-11-25T09:23:57.144Z,1004.21
2016-11-25T09:24:37.924Z,1004.19
2016-11-25T09:25:18.696Z,1004.17
2016-11-25T09:25:59.476Z,1004.22
2016-11-25T09:26:40.249Z,1004.24
2016-11-25T09:27:21.013Z,1004.23
2016-11-25T09:28:01.814Z,1004.24
2016-11-25T09:28:42.596Z,1004.25
2016-11-25T09:29:23.388Z,1004.23
2016-11-25T09:30:04.173Z,1004.23
2016-11-25T09:30:45.520Z,1004.2
2016-11-25T09:31:26.317Z,1004.24
2016-11-25T09:32:07.093Z,1004.23
2016-11-25T09:32:47.917Z,1004.25
2016-11-25T09:33:28.710Z,1004.26
2016-11-25T09:34:10.316Z,1004.28
2016-11-25T09:34:51.096Z,1004.26
2016-11-25T09:35:33.756Z,1004.26
2016-11-25T09:36:13.634Z,1004.24
2016-11-25T09:36:54.418Z,1004.29
2016-11-25T09:37:36.097Z,1004.31
2016-11-25T09:38:16.853Z,1004.3
2016-11-25T09:38:57.626Z,1004.29
2016-11-25T09:39:38.392Z,1004.33
2016-11-25T09:40:19.159Z,1004.34
2016-11-25T09:40:59.955Z,1004.33
2016-11-25T09:41:40.734Z,1004.37
2016-11-25T09:42:21.521Z,1004.35
2016-11-25T09:43:02.333Z,1004.37
2016-11-25T09:43:43.101Z,1004.34
2016-11-25T09:44:23.875Z,1004.32
2016-11-25T09:45:04.716Z,1004.35
2016-11-25T09:45:45.577Z,1004.34
2016-11-25T09:46:26.320Z,1004.34
2016-11-25T09:47:07.128Z,1004.33
2016-11-25T09:47:47.889Z,1004.36
2016-11-25T09:48:28.669Z,1004.35
2016-11-25T09:49:11.095Z,1004.35
2016-11-25T09:49:51.902Z,1004.35
2016-11-25T09:50:32.664Z,1004.36
2016-11-25T09:51:13.466Z,1004.37
2016-11-25T09:51:54.262Z,1004.36
2016-11-25T09:52:35.025Z,1004.36
2016-11-25T09:53:15.800Z,1004.42
2016-11-25T09:53:56.567Z,1004.4
2016-11-25T09:54:38.264Z,1004.4
2016-11-25T09:55:18.099Z,1004.42
2016-11-25T09:55:58.906Z,1004.43
2016-11-25T09:56:39.659Z,1004.39
2016-11-25T09:57:20.439Z,1004.4
2016-11-25T09:58:01.768Z,1004.38
2016-11-25T09:58:42.002Z,1004.46
2016-11-25T09:59:22.791Z,1004.45
2016-11-25T10:00:03.592Z,1004.48
2016-11-25T10:00:44.359Z,1004.48
2016-11-25T10:01:25.119Z,1004.43
2016-11-25T10:02:05.894Z,1004.45
2016-11-25T10:02:46.687Z,1004.46
2016-11-25T10:03:27.463Z,1004.46
2016-11-25T10:04:08.250Z,1004.47
2016-11-25T10:04:49.021Z,1004.5
2016-11-25T10:05:29.790Z,1004.48
2016-11-25T10:06:10.574Z,1004.49
2016-11-25T10:06:51.362Z,1004.47
2016-11-25T10:07:32.114Z,1004.48
2016-11-25T10:08:12.895Z,1004.45
2016-11-25T10:08:53.682Z,1004.52
2016-11-25T10:09:34.996Z,1004.51
2016-11-25T10:10:15.766Z,1004.55
2016-11-25T10:10:56.557Z,1004.52
2016-11-25T10:11:38.278Z,1004.51
2016-11-25T10:12:18.136Z,1004.52
2016-11-25T10:12:58.938Z,1004.53
2016-11-25T10:13:39.732Z,1004.46
2016-11-25T10:14:20.493Z,1004.49
2016-11-25T10:15:01.292Z,1004.51
2016-11-25T10:15:42.774Z,1004.5
2016-11-25T10:16:22.880Z,1004.51
2016-11-25T10:17:03.648Z,1004.51
2016-11-25T10:17:44.443Z,1004.53
2016-11-25T10:18:25.204Z,1004.52
2016-11-25T10:19:05.970Z,1004.53
2016-11-25T10:19:46.793Z,1004.52
2016-11-25T10:20:27.569Z,1004.51
2016-11-25T10:21:08.358Z,1004.48
2016-11-25T10:21:49.144Z,1004.46
2016-11-25T10:22:29.930Z,1004.5
2016-11-25T10:23:10.734Z,1004.48
2016-11-25T10:23:51.529Z,1004.42
2016-11-25T10:24:32.309Z,1004.44
2016-11-25T10:25:13.877Z,1004.46
2016-11-25T10:25:54.688Z,1004.44
2016-11-25T10:26:36.167Z,1004.44
2016-11-25T10:27:16.948Z,1004.4
2016-11-25T10:27:57.711Z,1004.45
2016-11-25T10:28:38.489Z,1004.41
2016-11-25T10:29:19.257Z,1004.4
2016-11-25T10:30:00.040Z,1004.42
2016-11-25T10:30:40.820Z,1004.43
2016-11-25T10:31:21.564Z,1004.42
2016-11-25T10:32:02.355Z,1004.4
2016-11-25T10:32:43.134Z,1004.42
2016-11-25T10:33:23.925Z,1004.44
2016-11-25T10:34:04.667Z,1004.4
2016-11-25T10:34:45.444Z,1004.41
2016-11-25T10:35:27.051Z,1004.43
2016-11-25T10:36:07.824Z,1004.42
2016-11-25T10:36:49.255Z,1004.37
2016-11-25T10:37:30.024Z,1004.38
2016-11-25T10:38:10.776Z,1004.39
2016-11-25T10:38:51.548Z,1004.32
2016-11-25T10:39:32.359Z,1004.34
2016-11-25T10:40:13.171Z,1004.33
2016-11-25T10:40:53.960Z,1004.37
2016-11-25T10:41:35.532Z,1004.33
2016-11-25T10:42:16.291Z,1004.34
2016-11-25T10:42:57.076Z,1004.34
2016-11-25T10:43:37.865Z,1004.33
2016-11-25T10:44:18.675Z,1004.32
2016-11-25T10:45:00.367Z,1004.35
2016-11-25T10:45:41.890Z,1004.34
2016-11-25T10:46:22.805Z,1004.33
2016-11-25T10:47:03.493Z,1004.31
2016-11-25T10:47:44.323Z,1004.33
2016-11-25T10:49:44.570Z,1004.33
2016-11-25T10:50:25.366Z,1004.33
2016-11-25T10:51:06.139Z,1004.29
2016-11-25T10:51:47.549Z,1004.29
2016-11-25T10:52:28.450Z,1004.25
2016-11-25T10:53:09.214Z,1004.27
2016-11-25T10:53:50.013Z,1004.27
2016-11-25T10:54:31.659Z,1004.28
2016-11-25T10:55:12.474Z,1004.28
2016-11-25T10:55:54.050Z,1004.27
2016-11-25T10:56:34.547Z,1004.24
2016-11-25T10:57:14.836Z,1004.25
2016-11-25T10:57:55.589Z,1004.27
2016-11-25T10:58:36.392Z,1004.27
2016-11-25T10:59:17.172Z,1004.26
2016-11-25T10:59:57.962Z,1004.24
2016-11-25T11:00:38.723Z,1004.24
2016-11-25T11:01:19.512Z,1004.25
2016-11-25T11:02:00.266Z,1004.19
2016-11-25T11:02:41.088Z,1004.2
2016-11-25T11:03:21.840Z,1004.2
2016-11-25T11:04:02.573Z,1004.21
2016-11-25T11:04:43.388Z,1004.21
2016-11-25T11:05:24.173Z,1004.17
2016-11-25T11:06:04.941Z,1004.18
2016-11-25T11:06:45.772Z,1004.16
2016-11-25T11:07:26.533Z,1004.2
2016-11-25T11:08:09.000Z,1004.18
2016-11-25T11:08:50.643Z,1004.16
2016-11-25T11:09:32.061Z,1004.15
2016-11-25T11:10:12.226Z,1004.14
2016-11-25T11:10:53.026Z,1004.11
2016-11-25T11:11:33.823Z,1004.13
2016-11-25T11:12:15.560Z,1004.15
2016-11-25T11:12:55.376Z,1004.13
2016-11-25T11:13:36.151Z,1004.1
2016-11-25T11:14:16.927Z,1004.07
2016-11-25T11:14:57.682Z,1004.1
2016-11-25T11:15:38.504Z,1004.09
2016-11-25T11:16:19.269Z,1004.08
2016-11-25T11:17:00.870Z,1004.08
2016-11-25T11:17:41.692Z,1004.1
2016-11-25T11:18:23.076Z,1004.12
2016-11-25T11:19:03.251Z,1004.14
2016-11-25T11:19:44.018Z,1004.1
2016-11-25T11:20:24.824Z,1004.07
2016-11-25T11:21:05.581Z,1004.13
2016-11-25T11:21:46.349Z,1004.14
2016-11-25T11:22:27.109Z,1004.08
2016-11-25T11:23:07.923Z,1004.08
2016-11-25T11:23:49.356Z,1004.09
2016-11-25T11:24:30.217Z,1004.08
2016-11-25T11:25:11.092Z,1004.08
2016-11-25T11:25:51.867Z,1004.06
2016-11-25T11:26:32.637Z,1004.07
2016-11-25T11:27:13.423Z,1004.04
2016-11-25T11:27:54.184Z,1004.05
2016-11-25T11:28:34.987Z,1004.04
2016-11-25T11:29:15.846Z,1004.02
2016-11-25T11:29:56.838Z,1003.99
2016-11-25T11:30:37.602Z,1004
2016-11-25T11:31:18.398Z,1003.99
2016-11-25T11:31:59.159Z,1003.99
2016-11-25T11:32:39.970Z,1003.96
2016-11-25T11:33:20.760Z,1003.93
2016-11-25T11:34:01.553Z,1003.98
2016-11-25T11:34:42.303Z,1003.99
2016-11-25T11:35:23.084Z,1003.94
2016-11-25T11:36:03.868Z,1004
2016-11-25T11:36:44.613Z,1003.95
2016-11-25T11:37:25.434Z,1003.93
2016-11-25T11:38:06.241Z,1003.93
2016-11-25T11:38:47.072Z,1003.96
2016-11-25T11:39:27.834Z,1003.94
2016-11-25T11:40:08.655Z,1003.92
2016-11-25T11:40:49.433Z,1003.93
2016-11-25T11:41:30.203Z,1003.94
2016-11-25T11:42:11.012Z,1003.92
2016-11-25T11:42:51.799Z,1003.94
2016-11-25T11:43:32.595Z,1003.93
2016-11-25T11:44:13.362Z,1003.95
2016-11-25T11:44:54.159Z,1003.94
2016-11-25T11:45:34.912Z,1003.94
2016-11-25T11:46:15.692Z,1003.91
2016-11-25T11:46:56.494Z,1003.95
2016-11-25T11:47:38.167Z,1003.92
2016-11-25T11:48:18.998Z,1003.89
2016-11-25T11:49:00.577Z,1003.93
2016-11-25T11:49:40.580Z,1003.89
2016-11-25T11:50:21.369Z,1003.91
2016-11-25T11:51:02.195Z,1003.91
2016-11-25T11:51:42.955Z,1003.89
2016-11-25T11:52:23.767Z,1003.92
2016-11-25T11:53:04.579Z,1003.9
2016-11-25T11:53:45.348Z,1003.86
2016-11-25T11:54:26.141Z,1003.88
2016-11-25T11:55:07.586Z,1003.86
2016-11-25T11:55:47.732Z,1003.87
2016-11-25T11:56:28.511Z,1003.86
2016-11-25T11:57:09.321Z,1003.84
2016-11-25T11:57:50.140Z,1003.85
2016-11-25T11:58:30.932Z,1003.83
2016-11-25T11:59:11.713Z,1003.79
2016-11-25T11:59:52.539Z,1003.81
2016-11-25T12:00:33.338Z,1003.82
2016-11-25T12:01:14.115Z,1003.78
2016-11-25T12:01:54.927Z,1003.8
2016-11-25T12:02:35.751Z,1003.79
2016-11-25T12:03:16.525Z,1003.78
2016-11-25T12:03:57.344Z,1003.78
2016-11-25T12:04:38.101Z,1003.77
2016-11-25T12:05:18.881Z,1003.77
2016-11-25T12:05:59.658Z,1003.75
2016-11-25T12:06:40.533Z,1003.75
2016-11-25T12:07:21.242Z,1003.79
2016-11-25T12:08:02.036Z,1003.77
2016-11-25T12:08:42.946Z,1003.8
2016-11-25T12:09:23.728Z,1003.79
2016-11-25T12:10:04.552Z,1003.81
2016-11-25T12:10:45.344Z,1003.83
2016-11-25T12:11:26.593Z,1003.81
2016-11-25T12:12:06.875Z,1003.82
2016-11-25T12:12:48.591Z,1003.76
2016-11-25T12:13:28.451Z,1003.77
2016-11-25T12:14:09.292Z,1003.74
2016-11-25T12:14:50.607Z,1003.77
2016-11-25T12:15:30.888Z,1003.71
2016-11-25T12:16:11.674Z,1003.69
2016-11-25T12:16:52.471Z,1003.7
2016-11-25T12:17:33.877Z,1003.66
2016-11-25T12:18:14.656Z,1003.64
2016-11-25T12:18:55.445Z,1003.66
2016-11-25T12:19:36.259Z,1003.64
2016-11-25T12:20:17.601Z,1003.64
2016-11-25T12:20:57.826Z,1003.63
2016-11-25T12:21:38.607Z,1003.64
2016-11-25T12:22:19.376Z,1003.63
2016-11-25T12:23:00.145Z,1003.67
2016-11-25T12:23:40.958Z,1003.66
2016-11-25T12:24:21.819Z,1003.64
2016-11-25T12:25:02.559Z,1003.65
2016-11-25T12:25:44.178Z,1003.65
2016-11-25T12:26:25.598Z,1003.63
2016-11-25T12:27:06.605Z,1003.64
2016-11-25T12:27:46.558Z,1003.63
2016-11-25T12:28:27.376Z,1003.59
2016-11-25T12:29:08.166Z,1003.64
2016-11-25T12:29:48.964Z,1003.61
2016-11-25T12:30:29.735Z,1003.61
2016-11-25T12:31:10.515Z,1003.62
2016-11-25T12:31:52.106Z,1003.59
2016-11-25T12:32:32.089Z,1003.61
2016-11-25T12:33:12.857Z,1003.58
2016-11-25T12:33:53.639Z,1003.58
2016-11-25T12:34:34.437Z,1003.61
2016-11-25T12:35:15.252Z,1003.58
2016-11-25T12:35:56.033Z,1003.56
2016-11-25T12:36:36.837Z,1003.57
2016-11-25T12:37:17.610Z,1003.56
2016-11-25T12:37:58.395Z,1003.59
2016-11-25T12:38:39.178Z,1003.62
2016-11-25T12:39:19.938Z,1003.58
2016-11-25T12:40:00.707Z,1003.62
2016-11-25T12:40:41.476Z,1003.6
2016-11-25T12:41:22.880Z,1003.58
2016-11-25T12:42:03.643Z,1003.62
2016-11-25T12:42:44.418Z,1003.6
2016-11-25T12:43:25.873Z,1003.6
2016-11-25T12:44:06.670Z,1003.6
2016-11-25T12:44:47.485Z,1003.59
2016-11-25T12:45:28.270Z,1003.58
2016-11-25T12:46:09.064Z,1003.58
2016-11-25T12:46:49.850Z,1003.55
2016-11-25T12:47:30.640Z,1003.52
2016-11-25T12:48:11.457Z,1003.56
2016-11-25T12:48:52.258Z,1003.54
2016-11-25T12:49:33.038Z,1003.56
2016-11-25T12:50:14.616Z,1003.52
2016-11-25T12:50:54.604Z,1003.57
2016-11-25T12:51:35.373Z,1003.54
2016-11-25T12:52:16.168Z,1003.58
2016-11-25T12:52:56.921Z,1003.56
2016-11-25T12:53:37.726Z,1003.56
2016-11-25T12:54:18.507Z,1003.56
2016-11-25T12:54:59.262Z,1003.54
2016-11-25T12:55:40.015Z,1003.54
2016-11-25T12:56:20.800Z,1003.49
2016-11-25T12:57:02.114Z,1003.52
2016-11-25T12:57:42.453Z,1003.51
2016-11-25T12:58:23.417Z,1003.53
2016-11-25T12:59:04.275Z,1003.5
2016-11-25T12:59:45.886Z,1003.49
2016-11-25T13:00:26.651Z,1003.5
2016-11-25T13:01:07.451Z,1003.51
2016-11-25T13:01:48.271Z,1003.54
2016-11-25T13:02:28.983Z,1003.53
2016-11-25T13:03:09.738Z,1003.53
2016-11-25T13:03:51.126Z,1003.51
2016-11-25T13:04:31.296Z,1003.49
2016-11-25T13:05:12.076Z,1003.52
2016-11-25T13:05:52.855Z,1003.51
2016-11-25T13:06:33.654Z,1003.5
2016-11-25T13:07:14.390Z,1003.47
2016-11-25T13:07:55.151Z,1003.48
2016-11-25T13:08:35.911Z,1003.49
2016-11-25T13:09:16.676Z,1003.45
2016-11-25T13:09:57.444Z,1003.48
2016-11-25T13:10:38.202Z,1003.45
2016-11-25T13:11:18.965Z,1003.43
2016-11-25T13:11:59.719Z,1003.48
2016-11-25T13:12:40.502Z,1003.42
2016-11-25T13:13:21.296Z,1003.47
2016-11-25T13:14:02.051Z,1003.46
2016-11-25T13:14:42.836Z,1003.46
2016-11-25T13:15:23.587Z,1003.44
2016-11-25T13:16:04.354Z,1003.45
2016-11-25T13:16:45.119Z,1003.43
2016-11-25T13:17:25.899Z,1003.44
2016-11-25T13:18:06.652Z,1003.44
2016-11-25T13:18:47.425Z,1003.45
2016-11-25T13:19:28.199Z,1003.42
2016-11-25T13:20:08.943Z,1003.38
2016-11-25T13:20:49.738Z,1003.41
2016-11-25T13:21:30.527Z,1003.42
2016-11-25T13:22:11.281Z,1003.41
2016-11-25T13:22:52.057Z,1003.38
2016-11-25T13:23:32.841Z,1003.35
2016-11-25T13:24:13.601Z,1003.36
2016-11-25T13:24:54.376Z,1003.38
2016-11-25T13:25:35.146Z,1003.45
2016-11-25T13:26:15.878Z,1003.42
2016-11-25T13:26:56.632Z,1003.42
2016-11-25T13:27:37.421Z,1003.4
2016-11-25T13:28:18.213Z,1003.42
2016-11-25T13:28:58.940Z,1003.41
2016-11-25T13:29:39.705Z,1003.42
2016-11-25T13:30:20.494Z,1003.39
2016-11-25T13:31:01.239Z,1003.41
2016-11-25T13:31:42.693Z,1003.44
2016-11-25T13:32:23.464Z,1003.4
2016-11-25T13:33:04.257Z,1003.41
2016-11-25T13:33:45.007Z,1003.42
2016-11-25T13:34:25.785Z,1003.39
2016-11-25T13:35:06.541Z,1003.36
2016-11-25T13:35:47.285Z,1003.38
2016-11-25T13:36:28.082Z,1003.39
2016-11-25T13:37:08.828Z,1003.37
2016-11-25T13:37:49.602Z,1003.37
2016-11-25T13:38:30.382Z,1003.38
2016-11-25T13:39:11.142Z,1003.35
2016-11-25T13:39:51.880Z,1003.34
2016-11-25T13:40:32.682Z,1003.34
2016-11-25T13:41:13.432Z,1003.33
2016-11-25T13:41:55.146Z,1003.28
2016-11-25T13:42:35.042Z,1003.3
2016-11-25T13:43:15.817Z,1003.34
2016-11-25T13:43:56.577Z,1003.36
2016-11-25T13:44:38.143Z,1003.35
2016-11-25T13:45:18.131Z,1003.36
2016-11-25T13:45:58.943Z,1003.35
2016-11-25T13:46:39.699Z,1003.38
2016-11-25T13:47:20.503Z,1003.38
2016-11-25T13:48:01.301Z,1003.38
2016-11-25T13:48:42.073Z,1003.4
2016-11-25T13:49:22.865Z,1003.38
2016-11-25T13:50:03.648Z,1003.38
2016-11-25T13:50:44.404Z,1003.38
2016-11-25T13:51:25.188Z,1003.39
2016-11-25T13:52:05.976Z,1003.39
2016-11-25T13:52:46.705Z,1003.4
2016-11-25T13:53:27.473Z,1003.39
2016-11-25T13:54:08.263Z,1003.38
2016-11-25T13:54:49.082Z,1003.39
2016-11-25T13:55:29.842Z,1003.38
2016-11-25T13:56:10.623Z,1003.36
2016-11-25T13:56:51.370Z,1003.42
2016-11-25T13:57:32.125Z,1003.37
2016-11-25T13:58:12.915Z,1003.36
2016-11-25T13:58:53.680Z,1003.37
2016-11-25T13:59:34.421Z,1003.37
2016-11-25T14:00:15.175Z,1003.35
2016-11-25T14:00:55.940Z,1003.35
2016-11-25T14:01:36.696Z,1003.35
2016-11-25T14:02:17.513Z,1003.34
2016-11-25T14:02:58.329Z,1003.34
2016-11-25T14:03:39.082Z,1003.32
2016-11-25T14:04:19.868Z,1003.33
2016-11-25T14:05:00.648Z,1003.34
2016-11-25T14:05:41.439Z,1003.32
2016-11-25T14:06:22.230Z,1003.34
2016-11-25T14:07:03.027Z,1003.33
2016-11-25T14:07:43.800Z,1003.33
2016-11-25T14:08:24.559Z,1003.33
2016-11-25T14:09:05.346Z,1003.36
2016-11-25T14:09:46.104Z,1003.34
2016-11-25T14:10:26.881Z,1003.42
2016-11-25T14:11:07.685Z,1003.37
2016-11-25T14:11:48.654Z,1003.36
2016-11-25T14:12:29.425Z,1003.37
2016-11-25T14:13:10.204Z,1003.36
2016-11-25T14:13:51.023Z,1003.35
2016-11-25T14:14:31.749Z,1003.34
2016-11-25T14:15:12.526Z,1003.35
2016-11-25T14:15:53.305Z,1003.36
2016-11-25T14:16:34.087Z,1003.36
2016-11-25T14:17:15.087Z,1003.36
2016-11-25T14:17:55.996Z,1003.36
2016-11-25T14:18:36.791Z,1003.36
2016-11-25T14:19:17.597Z,1003.36
2016-11-25T14:19:58.375Z,1003.35
2016-11-25T14:20:39.387Z,1003.36
2016-11-25T14:21:20.168Z,1003.4
2016-11-25T14:22:00.934Z,1003.4
2016-11-25T14:22:41.731Z,1003.39
2016-11-25T14:23:22.527Z,1003.43
2016-11-25T14:24:03.297Z,1003.44
2016-11-25T14:24:44.080Z,1003.44
2016-11-25T14:25:24.876Z,1003.42
2016-11-25T14:26:05.613Z,1003.43
2016-11-25T14:26:46.427Z,1003.44
2016-11-25T14:27:27.192Z,1003.44
2016-11-25T14:28:07.972Z,1003.44
2016-11-25T14:28:48.768Z,1003.46
2016-11-25T14:29:29.548Z,1003.47
2016-11-25T14:30:11.301Z,1003.45
2016-11-25T14:30:52.139Z,1003.43
2016-11-25T14:31:32.909Z,1003.44
2016-11-25T14:32:13.696Z,1003.47
2016-11-25T14:32:54.494Z,1003.43
2016-11-25T14:33:35.277Z,1003.44
2016-11-25T14:34:16.026Z,1003.44
2016-11-25T14:34:57.768Z,1003.46
2016-11-25T14:35:38.567Z,1003.45
2016-11-25T14:36:19.344Z,1003.46
2016-11-25T14:37:00.112Z,1003.46
2016-11-25T14:37:40.959Z,1003.47
2016-11-25T14:38:21.724Z,1003.47
2016-11-25T14:39:02.478Z,1003.5
2016-11-25T14:39:43.281Z,1003.49
2016-11-25T14:40:24.043Z,1003.5